sensor_id;sensor_type;location;lat;lon;timestamp;P1;durP1;ratioP1;P2;durP2;ratioP2
86329;SDS011;76985;51.042;13.978;2024-03-08T00:02:14;51.10;;;20.35;;
86329;SDS011;76985;51.042;13.978;2024-03-08T00:05:20;45.20;;;19.00;;
86329;SDS011;76985;51.042;13.978;2024-03-08T00:07:47;51.03;;;20.15;;
86329;SDS011;76985;51.042;13.978;2024-03-08T00:10:13;47.83;;;19.38;;
86329;SDS011;76985;51.042;13.978;2024-03-08T00:12:40;53.08;;;19.38;;
86329;SDS011;76985;51.042;13.978;2024-03-08T00:15:16;48.63;;;18.58;;
86329;SDS011;76985;51.042;13.978;2024-03-08T00:17:43;47.65;;;19.80;;
86329;SDS011;76985;51.042;13.978;2024-03-08T00:20:10;47.15;;;19.20;;
86329;SDS011;76985;51.042;13.978;2024-03-08T00:22:36;50.42;;;19.52;;
86329;SDS011;76985;51.042;13.978;2024-03-08T00:25:32;52.60;;;19.40;;
86329;SDS011;76985;51.042;13.978;2024-03-08T00:27:59;49.67;;;20.25;;
86329;SDS011;76985;51.042;13.978;2024-03-08T00:30:25;52.50;;;19.90;;
86329;SDS011;76985;51.042;13.978;2024-03-08T00:32:51;51.70;;;20.13;;
86329;SDS011;76985;51.042;13.978;2024-03-08T00:35:17;49.58;;;19.83;;
86329;SDS011;76985;51.042;13.978;2024-03-08T00:37:43;48.53;;;19.65;;
86329;SDS011;76985;51.042;13.978;2024-03-08T00:40:12;50.78;;;18.92;;
86329;SDS011;76985;51.042;13.978;2024-03-08T00:42:38;45.88;;;17.50;;
86329;SDS011;76985;51.042;13.978;2024-03-08T00:45:44;45.85;;;18.40;;
86329;SDS011;76985;51.042;13.978;2024-03-08T00:48:10;41.75;;;17.13;;
86329;SDS011;76985;51.042;13.978;2024-03-08T00:50:36;43.80;;;16.70;;
86329;SDS011;76985;51.042;13.978;2024-03-08T00:53:03;43.53;;;17.90;;
86329;SDS011;76985;51.042;13.978;2024-03-08T00:55:30;40.92;;;16.92;;
86329;SDS011;76985;51.042;13.978;2024-03-08T00:57:56;51.92;;;18.33;;
86329;SDS011;76985;51.042;13.978;2024-03-08T01:00:22;42.15;;;18.98;;
86329;SDS011;76985;51.042;13.978;2024-03-08T01:02:49;50.58;;;19.27;;
86329;SDS011;76985;51.042;13.978;2024-03-08T01:05:41;48.78;;;19.45;;
86329;SDS011;76985;51.042;13.978;2024-03-08T01:08:08;45.47;;;17.63;;
86329;SDS011;76985;51.042;13.978;2024-03-08T01:10:37;50.00;;;19.52;;
86329;SDS011;76985;51.042;13.978;2024-03-08T01:13:03;50.22;;;18.52;;
86329;SDS011;76985;51.042;13.978;2024-03-08T01:15:29;55.10;;;18.80;;
86329;SDS011;76985;51.042;13.978;2024-03-08T01:17:56;56.00;;;19.13;;
86329;SDS011;76985;51.042;13.978;2024-03-08T01:20:22;42.58;;;18.25;;
86329;SDS011;76985;51.042;13.978;2024-03-08T01:22:48;44.38;;;18.70;;
86329;SDS011;76985;51.042;13.978;2024-03-08T01:25:55;45.53;;;18.13;;
86329;SDS011;76985;51.042;13.978;2024-03-08T01:28:24;48.40;;;18.25;;
86329;SDS011;76985;51.042;13.978;2024-03-08T01:30:51;49.72;;;19.27;;
86329;SDS011;76985;51.042;13.978;2024-03-08T01:33:22;50.22;;;19.83;;
86329;SDS011;76985;51.042;13.978;2024-03-08T01:35:49;53.65;;;19.70;;
86329;SDS011;76985;51.042;13.978;2024-03-08T01:38:15;49.58;;;20.08;;
86329;SDS011;76985;51.042;13.978;2024-03-08T01:40:41;47.42;;;20.23;;
86329;SDS011;76985;51.042;13.978;2024-03-08T01:46:00;51.72;;;17.67;;
86329;SDS011;76985;51.042;13.978;2024-03-08T01:48:29;55.75;;;17.55;;
86329;SDS011;76985;51.042;13.978;2024-03-08T01:50:57;52.88;;;19.88;;
86329;SDS011;76985;51.042;13.978;2024-03-08T01:53:26;43.72;;;19.02;;
86329;SDS011;76985;51.042;13.978;2024-03-08T01:55:55;44.65;;;19.08;;
86329;SDS011;76985;51.042;13.978;2024-03-08T01:58:23;48.75;;;16.48;;
86329;SDS011;76985;51.042;13.978;2024-03-08T02:00:51;51.20;;;18.10;;
86329;SDS011;76985;51.042;13.978;2024-03-08T02:05:56;45.92;;;18.23;;
86329;SDS011;76985;51.042;13.978;2024-03-08T02:08:24;50.40;;;18.52;;
86329;SDS011;76985;51.042;13.978;2024-03-08T02:10:51;52.53;;;18.88;;
86329;SDS011;76985;51.042;13.978;2024-03-08T02:13:17;54.92;;;19.80;;
86329;SDS011;76985;51.042;13.978;2024-03-08T02:18:37;42.63;;;16.63;;
86329;SDS011;76985;51.042;13.978;2024-03-08T02:21:05;50.72;;;17.58;;
86329;SDS011;76985;51.042;13.978;2024-03-08T02:25:39;40.33;;;14.77;;
86329;SDS011;76985;51.042;13.978;2024-03-08T02:28:05;49.80;;;17.48;;
86329;SDS011;76985;51.042;13.978;2024-03-08T02:30:31;45.85;;;17.52;;
86329;SDS011;76985;51.042;13.978;2024-03-08T02:32:57;53.33;;;18.45;;
86329;SDS011;76985;51.042;13.978;2024-03-08T02:35:24;51.40;;;19.02;;
86329;SDS011;76985;51.042;13.978;2024-03-08T02:37:50;50.80;;;19.58;;
86329;SDS011;76985;51.042;13.978;2024-03-08T02:40:16;44.22;;;18.30;;
86329;SDS011;76985;51.042;13.978;2024-03-08T02:42:42;47.75;;;18.33;;
86329;SDS011;76985;51.042;13.978;2024-03-08T02:45:52;41.95;;;17.25;;
86329;SDS011;76985;51.042;13.978;2024-03-08T02:48:18;49.50;;;16.58;;
86329;SDS011;76985;51.042;13.978;2024-03-08T02:50:45;52.38;;;19.08;;
86329;SDS011;76985;51.042;13.978;2024-03-08T02:53:11;52.13;;;18.65;;
86329;SDS011;76985;51.042;13.978;2024-03-08T02:55:38;48.40;;;17.80;;
86329;SDS011;76985;51.042;13.978;2024-03-08T02:58:06;45.28;;;16.20;;
86329;SDS011;76985;51.042;13.978;2024-03-08T03:00:36;40.05;;;15.95;;
86329;SDS011;76985;51.042;13.978;2024-03-08T03:05:51;45.15;;;15.85;;
86329;SDS011;76985;51.042;13.978;2024-03-08T03:10:47;50.28;;;16.10;;
86329;SDS011;76985;51.042;13.978;2024-03-08T03:13:13;47.42;;;17.20;;
86329;SDS011;76985;51.042;13.978;2024-03-08T03:15:42;43.97;;;16.75;;
86329;SDS011;76985;51.042;13.978;2024-03-08T03:18:08;51.67;;;19.27;;
86329;SDS011;76985;51.042;13.978;2024-03-08T03:20:34;41.28;;;16.10;;
86329;SDS011;76985;51.042;13.978;2024-03-08T03:23:06;41.30;;;15.73;;
86329;SDS011;76985;51.042;13.978;2024-03-08T03:26:19;45.25;;;16.23;;
86329;SDS011;76985;51.042;13.978;2024-03-08T03:28:47;46.20;;;16.58;;
86329;SDS011;76985;51.042;13.978;2024-03-08T03:31:13;43.85;;;16.92;;
86329;SDS011;76985;51.042;13.978;2024-03-08T03:33:40;50.65;;;17.58;;
86329;SDS011;76985;51.042;13.978;2024-03-08T03:36:06;52.45;;;19.63;;
86329;SDS011;76985;51.042;13.978;2024-03-08T03:38:35;50.60;;;17.85;;
86329;SDS011;76985;51.042;13.978;2024-03-08T03:41:01;43.55;;;17.30;;
86329;SDS011;76985;51.042;13.978;2024-03-08T03:46:16;45.75;;;18.55;;
86329;SDS011;76985;51.042;13.978;2024-03-08T03:48:42;44.05;;;18.45;;
86329;SDS011;76985;51.042;13.978;2024-03-08T03:51:09;50.58;;;19.27;;
86329;SDS011;76985;51.042;13.978;2024-03-08T03:53:35;42.45;;;18.67;;
86329;SDS011;76985;51.042;13.978;2024-03-08T03:56:01;48.97;;;18.88;;
86329;SDS011;76985;51.042;13.978;2024-03-08T03:58:27;44.60;;;19.58;;
86329;SDS011;76985;51.042;13.978;2024-03-08T04:00:53;47.47;;;18.30;;
86329;SDS011;76985;51.042;13.978;2024-03-08T04:03:19;52.47;;;19.30;;
86329;SDS011;76985;51.042;13.978;2024-03-08T04:06:31;48.30;;;17.75;;
86329;SDS011;76985;51.042;13.978;2024-03-08T04:08:57;43.72;;;17.90;;
86329;SDS011;76985;51.042;13.978;2024-03-08T04:11:23;51.65;;;18.02;;
86329;SDS011;76985;51.042;13.978;2024-03-08T04:13:49;49.50;;;18.25;;
86329;SDS011;76985;51.042;13.978;2024-03-08T04:16:15;38.13;;;16.25;;
86329;SDS011;76985;51.042;13.978;2024-03-08T04:18:42;48.03;;;18.10;;
86329;SDS011;76985;51.042;13.978;2024-03-08T04:21:09;51.08;;;18.65;;
86329;SDS011;76985;51.042;13.978;2024-03-08T04:23:35;61.22;;;20.00;;
86329;SDS011;76985;51.042;13.978;2024-03-08T04:26:45;45.20;;;16.60;;
86329;SDS011;76985;51.042;13.978;2024-03-08T04:29:12;51.50;;;17.20;;
86329;SDS011;76985;51.042;13.978;2024-03-08T04:31:40;44.75;;;16.98;;
86329;SDS011;76985;51.042;13.978;2024-03-08T04:34:06;48.42;;;18.05;;
86329;SDS011;76985;51.042;13.978;2024-03-08T04:36:32;49.67;;;17.63;;
86329;SDS011;76985;51.042;13.978;2024-03-08T04:38:59;38.60;;;16.08;;
86329;SDS011;76985;51.042;13.978;2024-03-08T04:41:26;54.10;;;17.73;;
86329;SDS011;76985;51.042;13.978;2024-03-08T04:43:52;46.35;;;17.63;;
86329;SDS011;76985;51.042;13.978;2024-03-08T04:46:57;44.53;;;17.58;;
86329;SDS011;76985;51.042;13.978;2024-03-08T04:49:23;42.35;;;15.98;;
86329;SDS011;76985;51.042;13.978;2024-03-08T04:51:49;54.85;;;18.30;;
86329;SDS011;76985;51.042;13.978;2024-03-08T04:54:16;49.80;;;17.75;;
86329;SDS011;76985;51.042;13.978;2024-03-08T04:56:42;46.70;;;17.33;;
86329;SDS011;76985;51.042;13.978;2024-03-08T04:59:08;47.75;;;16.80;;
86329;SDS011;76985;51.042;13.978;2024-03-08T05:01:34;46.88;;;16.20;;
86329;SDS011;76985;51.042;13.978;2024-03-08T05:04:03;35.75;;;15.25;;
86329;SDS011;76985;51.042;13.978;2024-03-08T05:07:12;39.92;;;16.23;;
86329;SDS011;76985;51.042;13.978;2024-03-08T05:09:38;44.63;;;17.38;;
86329;SDS011;76985;51.042;13.978;2024-03-08T05:12:06;43.60;;;16.55;;
86329;SDS011;76985;51.042;13.978;2024-03-08T05:14:33;51.17;;;19.33;;
86329;SDS011;76985;51.042;13.978;2024-03-08T05:17:00;47.08;;;17.88;;
86329;SDS011;76985;51.042;13.978;2024-03-08T05:19:26;47.17;;;17.85;;
86329;SDS011;76985;51.042;13.978;2024-03-08T05:21:52;50.17;;;19.05;;
86329;SDS011;76985;51.042;13.978;2024-03-08T05:24:18;52.85;;;18.30;;
86329;SDS011;76985;51.042;13.978;2024-03-08T05:27:28;46.08;;;15.55;;
86329;SDS011;76985;51.042;13.978;2024-03-08T05:29:55;43.30;;;16.90;;
86329;SDS011;76985;51.042;13.978;2024-03-08T05:32:21;47.97;;;18.15;;
86329;SDS011;76985;51.042;13.978;2024-03-08T05:34:47;54.78;;;18.33;;
86329;SDS011;76985;51.042;13.978;2024-03-08T05:37:13;47.35;;;17.27;;
86329;SDS011;76985;51.042;13.978;2024-03-08T05:39:39;54.22;;;19.75;;
86329;SDS011;76985;51.042;13.978;2024-03-08T05:42:06;50.72;;;18.10;;
86329;SDS011;76985;51.042;13.978;2024-03-08T05:44:34;43.88;;;17.30;;
86329;SDS011;76985;51.042;13.978;2024-03-08T05:47:43;45.67;;;17.02;;
86329;SDS011;76985;51.042;13.978;2024-03-08T05:50:10;50.08;;;17.80;;
86329;SDS011;76985;51.042;13.978;2024-03-08T05:52:37;48.42;;;17.13;;
86329;SDS011;76985;51.042;13.978;2024-03-08T05:55:04;45.05;;;17.40;;
86329;SDS011;76985;51.042;13.978;2024-03-08T05:57:33;58.75;;;18.58;;
86329;SDS011;76985;51.042;13.978;2024-03-08T06:00:03;51.60;;;17.52;;
86329;SDS011;76985;51.042;13.978;2024-03-08T06:02:30;44.97;;;17.35;;
86329;SDS011;76985;51.042;13.978;2024-03-08T06:04:56;56.70;;;20.75;;
86329;SDS011;76985;51.042;13.978;2024-03-08T06:07:59;52.08;;;17.85;;
86329;SDS011;76985;51.042;13.978;2024-03-08T06:10:25;48.47;;;17.20;;
86329;SDS011;76985;51.042;13.978;2024-03-08T06:12:51;47.80;;;19.50;;
86329;SDS011;76985;51.042;13.978;2024-03-08T06:15:17;50.83;;;19.00;;
86329;SDS011;76985;51.042;13.978;2024-03-08T06:17:46;44.28;;;18.52;;
86329;SDS011;76985;51.042;13.978;2024-03-08T06:20:12;47.45;;;18.90;;
86329;SDS011;76985;51.042;13.978;2024-03-08T06:22:39;52.90;;;18.33;;
86329;SDS011;76985;51.042;13.978;2024-03-08T06:25:10;53.85;;;18.60;;
86329;SDS011;76985;51.042;13.978;2024-03-08T06:27:57;53.72;;;20.35;;
86329;SDS011;76985;51.042;13.978;2024-03-08T06:30:23;57.28;;;21.08;;
86329;SDS011;76985;51.042;13.978;2024-03-08T06:32:49;74.93;;;27.73;;
86329;SDS011;76985;51.042;13.978;2024-03-08T06:35:15;101.85;;;35.38;;
86329;SDS011;76985;51.042;13.978;2024-03-08T06:37:41;98.68;;;35.15;;
86329;SDS011;76985;51.042;13.978;2024-03-08T06:40:09;126.63;;;44.55;;
86329;SDS011;76985;51.042;13.978;2024-03-08T06:42:39;125.35;;;43.38;;
86329;SDS011;76985;51.042;13.978;2024-03-08T06:45:06;153.90;;;56.00;;
86329;SDS011;76985;51.042;13.978;2024-03-08T06:47:56;75.25;;;27.73;;
86329;SDS011;76985;51.042;13.978;2024-03-08T06:50:23;125.35;;;42.65;;
86329;SDS011;76985;51.042;13.978;2024-03-08T06:52:49;126.03;;;41.72;;
86329;SDS011;76985;51.042;13.978;2024-03-08T06:55:19;160.55;;;62.00;;
86329;SDS011;76985;51.042;13.978;2024-03-08T06:57:46;175.48;;;59.58;;
86329;SDS011;76985;51.042;13.978;2024-03-08T07:00:12;172.35;;;59.60;;
86329;SDS011;76985;51.042;13.978;2024-03-08T07:02:44;161.57;;;55.00;;
86329;SDS011;76985;51.042;13.978;2024-03-08T07:07:54;112.22;;;39.60;;
86329;SDS011;76985;51.042;13.978;2024-03-08T07:10:20;99.40;;;34.92;;
86329;SDS011;76985;51.042;13.978;2024-03-08T07:12:50;102.70;;;38.33;;
86329;SDS011;76985;51.042;13.978;2024-03-08T07:15:16;90.68;;;30.83;;
86329;SDS011;76985;51.042;13.978;2024-03-08T07:17:45;82.28;;;34.15;;
86329;SDS011;76985;51.042;13.978;2024-03-08T07:20:12;84.13;;;32.83;;
86329;SDS011;76985;51.042;13.978;2024-03-08T07:22:41;84.05;;;30.55;;
86329;SDS011;76985;51.042;13.978;2024-03-08T07:27:45;70.78;;;29.15;;
86329;SDS011;76985;51.042;13.978;2024-03-08T07:30:11;73.25;;;30.08;;
86329;SDS011;76985;51.042;13.978;2024-03-08T07:32:38;79.03;;;30.38;;
86329;SDS011;76985;51.042;13.978;2024-03-08T07:35:04;85.07;;;31.75;;
86329;SDS011;76985;51.042;13.978;2024-03-08T07:37:30;85.25;;;31.08;;
86329;SDS011;76985;51.042;13.978;2024-03-08T07:39:57;75.10;;;30.05;;
86329;SDS011;76985;51.042;13.978;2024-03-08T07:42:23;78.95;;;28.92;;
86329;SDS011;76985;51.042;13.978;2024-03-08T07:44:49;79.65;;;30.83;;
86329;SDS011;76985;51.042;13.978;2024-03-08T07:48:04;66.22;;;26.98;;
86329;SDS011;76985;51.042;13.978;2024-03-08T07:50:38;72.43;;;27.42;;
86329;SDS011;76985;51.042;13.978;2024-03-08T07:53:06;68.13;;;25.45;;
86329;SDS011;76985;51.042;13.978;2024-03-08T07:55:33;71.35;;;29.33;;
86329;SDS011;76985;51.042;13.978;2024-03-08T07:58:01;60.92;;;26.30;;
86329;SDS011;76985;51.042;13.978;2024-03-08T08:00:31;65.43;;;25.65;;
86329;SDS011;76985;51.042;13.978;2024-03-08T08:02:57;68.22;;;27.73;;
86329;SDS011;76985;51.042;13.978;2024-03-08T08:05:23;55.47;;;22.55;;
86329;SDS011;76985;51.042;13.978;2024-03-08T08:08:19;58.25;;;23.98;;
86329;SDS011;76985;51.042;13.978;2024-03-08T08:10:45;62.10;;;24.55;;
86329;SDS011;76985;51.042;13.978;2024-03-08T08:13:11;53.33;;;22.50;;
86329;SDS011;76985;51.042;13.978;2024-03-08T08:15:38;55.05;;;22.40;;
86329;SDS011;76985;51.042;13.978;2024-03-08T08:18:04;52.42;;;22.58;;
86329;SDS011;76985;51.042;13.978;2024-03-08T08:20:31;54.83;;;22.60;;
86329;SDS011;76985;51.042;13.978;2024-03-08T08:22:57;55.63;;;23.52;;
86329;SDS011;76985;51.042;13.978;2024-03-08T08:25:24;55.97;;;24.70;;
86329;SDS011;76985;51.042;13.978;2024-03-08T08:28:33;54.30;;;22.38;;
86329;SDS011;76985;51.042;13.978;2024-03-08T08:30:59;48.17;;;20.27;;
86329;SDS011;76985;51.042;13.978;2024-03-08T08:33:25;52.35;;;22.13;;
86329;SDS011;76985;51.042;13.978;2024-03-08T08:35:51;46.20;;;20.52;;
86329;SDS011;76985;51.042;13.978;2024-03-08T08:38:19;44.75;;;20.17;;
86329;SDS011;76985;51.042;13.978;2024-03-08T08:40:45;52.03;;;19.75;;
86329;SDS011;76985;51.042;13.978;2024-03-08T08:43:13;63.00;;;25.35;;
86329;SDS011;76985;51.042;13.978;2024-03-08T08:48:17;47.22;;;19.70;;
86329;SDS011;76985;51.042;13.978;2024-03-08T08:50:43;40.63;;;18.85;;
86329;SDS011;76985;51.042;13.978;2024-03-08T08:53:10;47.47;;;20.05;;
86329;SDS011;76985;51.042;13.978;2024-03-08T08:55:36;44.95;;;19.08;;
86329;SDS011;76985;51.042;13.978;2024-03-08T08:58:02;45.30;;;20.70;;
86329;SDS011;76985;51.042;13.978;2024-03-08T09:00:29;44.70;;;20.10;;
86329;SDS011;76985;51.042;13.978;2024-03-08T09:02:56;44.47;;;19.48;;
86329;SDS011;76985;51.042;13.978;2024-03-08T09:05:23;43.13;;;19.05;;
86329;SDS011;76985;51.042;13.978;2024-03-08T09:08:30;44.88;;;18.67;;
86329;SDS011;76985;51.042;13.978;2024-03-08T09:10:57;43.40;;;19.52;;
86329;SDS011;76985;51.042;13.978;2024-03-08T09:13:25;43.85;;;19.33;;
86329;SDS011;76985;51.042;13.978;2024-03-08T09:15:51;41.13;;;19.65;;
86329;SDS011;76985;51.042;13.978;2024-03-08T09:18:18;44.10;;;19.50;;
86329;SDS011;76985;51.042;13.978;2024-03-08T09:20:44;45.85;;;20.40;;
86329;SDS011;76985;51.042;13.978;2024-03-08T09:23:11;36.45;;;16.52;;
86329;SDS011;76985;51.042;13.978;2024-03-08T09:25:37;45.80;;;20.30;;
86329;SDS011;76985;51.042;13.978;2024-03-08T09:28:33;39.40;;;18.15;;
86329;SDS011;76985;51.042;13.978;2024-03-08T09:31:00;46.28;;;20.98;;
86329;SDS011;76985;51.042;13.978;2024-03-08T09:33:26;42.33;;;19.80;;
86329;SDS011;76985;51.042;13.978;2024-03-08T09:35:54;45.42;;;19.50;;
86329;SDS011;76985;51.042;13.978;2024-03-08T09:38:20;40.88;;;18.85;;
86329;SDS011;76985;51.042;13.978;2024-03-08T09:40:46;39.80;;;18.30;;
86329;SDS011;76985;51.042;13.978;2024-03-08T09:43:13;43.80;;;19.08;;
86329;SDS011;76985;51.042;13.978;2024-03-08T09:45:40;39.85;;;18.83;;
86329;SDS011;76985;51.042;13.978;2024-03-08T09:48:46;44.45;;;20.45;;
86329;SDS011;76985;51.042;13.978;2024-03-08T09:51:12;35.60;;;17.52;;
86329;SDS011;76985;51.042;13.978;2024-03-08T09:53:41;38.75;;;17.67;;
86329;SDS011;76985;51.042;13.978;2024-03-08T09:56:12;35.70;;;18.45;;
86329;SDS011;76985;51.042;13.978;2024-03-08T09:58:38;41.75;;;19.60;;
86329;SDS011;76985;51.042;13.978;2024-03-08T10:01:19;42.72;;;18.35;;
86329;SDS011;76985;51.042;13.978;2024-03-08T10:03:46;40.08;;;18.50;;
86329;SDS011;76985;51.042;13.978;2024-03-08T10:08:53;41.13;;;17.95;;
86329;SDS011;76985;51.042;13.978;2024-03-08T10:11:20;39.17;;;16.65;;
86329;SDS011;76985;51.042;13.978;2024-03-08T10:13:47;42.00;;;18.13;;
86329;SDS011;76985;51.042;13.978;2024-03-08T10:16:14;36.78;;;17.10;;
86329;SDS011;76985;51.042;13.978;2024-03-08T10:18:41;36.03;;;17.63;;
86329;SDS011;76985;51.042;13.978;2024-03-08T10:21:08;38.65;;;18.65;;
86329;SDS011;76985;51.042;13.978;2024-03-08T10:23:40;36.47;;;17.63;;
86329;SDS011;76985;51.042;13.978;2024-03-08T10:26:12;41.33;;;20.92;;
86329;SDS011;76985;51.042;13.978;2024-03-08T10:28:54;40.10;;;20.55;;
86329;SDS011;76985;51.042;13.978;2024-03-08T10:31:20;37.33;;;18.10;;
86329;SDS011;76985;51.042;13.978;2024-03-08T10:33:47;36.22;;;16.75;;
86329;SDS011;76985;51.042;13.978;2024-03-08T10:36:14;33.38;;;15.52;;
86329;SDS011;76985;51.042;13.978;2024-03-08T10:38:41;31.45;;;16.90;;
86329;SDS011;76985;51.042;13.978;2024-03-08T10:41:12;37.53;;;18.42;;
86329;SDS011;76985;51.042;13.978;2024-03-08T10:48:45;36.95;;;15.70;;
86329;SDS011;76985;51.042;13.978;2024-03-08T10:51:14;29.05;;;15.23;;
86329;SDS011;76985;51.042;13.978;2024-03-08T10:53:41;36.50;;;17.92;;
86329;SDS011;76985;51.042;13.978;2024-03-08T10:56:09;39.65;;;17.95;;
86329;SDS011;76985;51.042;13.978;2024-03-08T10:58:36;35.53;;;17.35;;
86329;SDS011;76985;51.042;13.978;2024-03-08T11:01:03;30.85;;;16.17;;
86329;SDS011;76985;51.042;13.978;2024-03-08T11:08:45;32.17;;;15.00;;
86329;SDS011;76985;51.042;13.978;2024-03-08T11:11:31;36.90;;;15.05;;
86329;SDS011;76985;51.042;13.978;2024-03-08T11:14:01;30.55;;;16.20;;
86329;SDS011;76985;51.042;13.978;2024-03-08T11:22:01;26.75;;;12.77;;
86329;SDS011;76985;51.042;13.978;2024-03-08T11:24:38;29.33;;;14.85;;
86329;SDS011;76985;51.042;13.978;2024-03-08T11:28:50;49.20;;;22.92;;
86329;SDS011;76985;51.042;13.978;2024-03-08T11:31:22;26.58;;;13.98;;
86329;SDS011;76985;51.042;13.978;2024-03-08T11:36:22;25.38;;;13.52;;
86329;SDS011;76985;51.042;13.978;2024-03-08T11:38:50;28.17;;;14.77;;
86329;SDS011;76985;51.042;13.978;2024-03-08T11:41:18;27.27;;;14.35;;
86329;SDS011;76985;51.042;13.978;2024-03-08T11:43:46;30.60;;;14.45;;
86329;SDS011;76985;51.042;13.978;2024-03-08T11:46:14;33.17;;;15.73;;
86329;SDS011;76985;51.042;13.978;2024-03-08T11:49:18;29.90;;;14.45;;
86329;SDS011;76985;51.042;13.978;2024-03-08T11:51:45;27.17;;;13.80;;
86329;SDS011;76985;51.042;13.978;2024-03-08T11:54:12;27.08;;;13.70;;
86329;SDS011;76985;51.042;13.978;2024-03-08T11:59:12;28.13;;;13.85;;
86329;SDS011;76985;51.042;13.978;2024-03-08T12:01:38;27.58;;;14.10;;
86329;SDS011;76985;51.042;13.978;2024-03-08T12:04:06;27.00;;;13.13;;
86329;SDS011;76985;51.042;13.978;2024-03-08T12:06:39;24.83;;;13.05;;
86329;SDS011;76985;51.042;13.978;2024-03-08T12:10:13;27.95;;;12.68;;
86329;SDS011;76985;51.042;13.978;2024-03-08T12:12:47;25.42;;;12.15;;
86329;SDS011;76985;51.042;13.978;2024-03-08T12:15:18;22.13;;;11.05;;
86329;SDS011;76985;51.042;13.978;2024-03-08T12:17:47;26.63;;;12.57;;
86329;SDS011;76985;51.042;13.978;2024-03-08T12:20:17;25.85;;;12.60;;
86329;SDS011;76985;51.042;13.978;2024-03-08T12:22:47;28.63;;;12.18;;
86329;SDS011;76985;51.042;13.978;2024-03-08T12:25:14;24.80;;;13.13;;
86329;SDS011;76985;51.042;13.978;2024-03-08T12:33:12;23.27;;;11.93;;
86329;SDS011;76985;51.042;13.978;2024-03-08T12:35:39;22.08;;;11.55;;
86329;SDS011;76985;51.042;13.978;2024-03-08T12:38:05;23.67;;;11.52;;
86329;SDS011;76985;51.042;13.978;2024-03-08T12:40:33;21.65;;;11.88;;
86329;SDS011;76985;51.042;13.978;2024-03-08T12:43:00;25.33;;;12.43;;
86329;SDS011;76985;51.042;13.978;2024-03-08T12:45:32;26.80;;;12.95;;
86329;SDS011;76985;51.042;13.978;2024-03-08T12:50:11;22.20;;;11.70;;
86329;SDS011;76985;51.042;13.978;2024-03-08T12:52:37;25.63;;;12.88;;
86329;SDS011;76985;51.042;13.978;2024-03-08T12:55:03;24.52;;;12.10;;
86329;SDS011;76985;51.042;13.978;2024-03-08T12:57:33;25.42;;;12.48;;
86329;SDS011;76985;51.042;13.978;2024-03-08T13:00:00;26.85;;;12.10;;
86329;SDS011;76985;51.042;13.978;2024-03-08T13:02:28;26.67;;;12.40;;
86329;SDS011;76985;51.042;13.978;2024-03-08T13:04:56;21.85;;;10.63;;
86329;SDS011;76985;51.042;13.978;2024-03-08T13:07:23;27.50;;;12.40;;
86329;SDS011;76985;51.042;13.978;2024-03-08T13:10:25;27.05;;;13.10;;
86329;SDS011;76985;51.042;13.978;2024-03-08T13:12:51;27.88;;;11.57;;
86329;SDS011;76985;51.042;13.978;2024-03-08T13:15:18;24.33;;;11.57;;
86329;SDS011;76985;51.042;13.978;2024-03-08T13:17:47;24.25;;;11.70;;
86329;SDS011;76985;51.042;13.978;2024-03-08T13:20:14;24.00;;;11.48;;
86329;SDS011;76985;51.042;13.978;2024-03-08T13:22:47;25.13;;;12.48;;
86329;SDS011;76985;51.042;13.978;2024-03-08T13:25:14;21.08;;;9.73;;
86329;SDS011;76985;51.042;13.978;2024-03-08T13:30:19;25.92;;;11.35;;
86329;SDS011;76985;51.042;13.978;2024-03-08T13:32:51;23.35;;;10.95;;
86329;SDS011;76985;51.042;13.978;2024-03-08T13:35:20;26.50;;;12.18;;
86329;SDS011;76985;51.042;13.978;2024-03-08T13:37:55;24.98;;;11.32;;
86329;SDS011;76985;51.042;13.978;2024-03-08T13:40:22;23.67;;;12.18;;
86329;SDS011;76985;51.042;13.978;2024-03-08T13:42:48;23.65;;;11.52;;
86329;SDS011;76985;51.042;13.978;2024-03-08T13:45:14;25.67;;;12.07;;
86329;SDS011;76985;51.042;13.978;2024-03-08T13:50:21;24.75;;;11.15;;
86329;SDS011;76985;51.042;13.978;2024-03-08T13:52:48;20.55;;;9.50;;
86329;SDS011;76985;51.042;13.978;2024-03-08T13:55:17;22.13;;;11.20;;
86329;SDS011;76985;51.042;13.978;2024-03-08T13:57:44;19.63;;;8.95;;
86329;SDS011;76985;51.042;13.978;2024-03-08T14:00:11;19.25;;;9.30;;
86329;SDS011;76985;51.042;13.978;2024-03-08T14:02:38;23.25;;;9.52;;
86329;SDS011;76985;51.042;13.978;2024-03-08T14:05:06;20.92;;;10.40;;
86329;SDS011;76985;51.042;13.978;2024-03-08T14:07:37;27.98;;;10.82;;
86329;SDS011;76985;51.042;13.978;2024-03-08T14:10:34;18.23;;;9.15;;
86329;SDS011;76985;51.042;13.978;2024-03-08T14:13:03;21.15;;;9.93;;
86329;SDS011;76985;51.042;13.978;2024-03-08T14:15:32;20.25;;;7.88;;
86329;SDS011;76985;51.042;13.978;2024-03-08T14:18:00;21.58;;;10.07;;
86329;SDS011;76985;51.042;13.978;2024-03-08T14:20:27;18.88;;;8.38;;
86329;SDS011;76985;51.042;13.978;2024-03-08T14:22:53;19.02;;;8.68;;
86329;SDS011;76985;51.042;13.978;2024-03-08T14:25:20;14.48;;;7.15;;
86329;SDS011;76985;51.042;13.978;2024-03-08T14:30:35;12.82;;;6.28;;
86329;SDS011;76985;51.042;13.978;2024-03-08T14:35:51;16.00;;;6.57;;
86329;SDS011;76985;51.042;13.978;2024-03-08T14:38:17;10.98;;;6.28;;
86329;SDS011;76985;51.042;13.978;2024-03-08T14:40:43;13.38;;;7.38;;
86329;SDS011;76985;51.042;13.978;2024-03-08T14:43:12;11.98;;;6.35;;
86329;SDS011;76985;51.042;13.978;2024-03-08T14:45:39;16.73;;;7.35;;
86329;SDS011;76985;51.042;13.978;2024-03-08T14:50:39;15.10;;;6.95;;
86329;SDS011;76985;51.042;13.978;2024-03-08T14:53:06;14.13;;;7.60;;
86329;SDS011;76985;51.042;13.978;2024-03-08T14:55:32;13.18;;;7.15;;
86329;SDS011;76985;51.042;13.978;2024-03-08T14:58:00;15.27;;;7.20;;
86329;SDS011;76985;51.042;13.978;2024-03-08T15:00:26;13.35;;;7.07;;
86329;SDS011;76985;51.042;13.978;2024-03-08T15:02:53;14.27;;;7.03;;
86329;SDS011;76985;51.042;13.978;2024-03-08T15:05:21;13.55;;;6.88;;
86329;SDS011;76985;51.042;13.978;2024-03-08T15:07:55;15.85;;;7.32;;
86329;SDS011;76985;51.042;13.978;2024-03-08T15:10:54;12.55;;;6.35;;
86329;SDS011;76985;51.042;13.978;2024-03-08T15:13:24;14.48;;;7.40;;
86329;SDS011;76985;51.042;13.978;2024-03-08T15:15:59;17.02;;;7.35;;
86329;SDS011;76985;51.042;13.978;2024-03-08T15:18:25;18.33;;;8.40;;
86329;SDS011;76985;51.042;13.978;2024-03-08T15:21:02;22.27;;;10.20;;
86329;SDS011;76985;51.042;13.978;2024-03-08T15:23:35;19.20;;;8.60;;
86329;SDS011;76985;51.042;13.978;2024-03-08T15:26:02;22.35;;;8.75;;
86329;SDS011;76985;51.042;13.978;2024-03-08T15:31:23;14.18;;;6.50;;
86329;SDS011;76985;51.042;13.978;2024-03-08T15:33:52;17.80;;;8.82;;
86329;SDS011;76985;51.042;13.978;2024-03-08T15:36:29;15.77;;;6.97;;
86329;SDS011;76985;51.042;13.978;2024-03-08T15:38:59;16.05;;;7.93;;
86329;SDS011;76985;51.042;13.978;2024-03-08T15:41:26;19.25;;;9.13;;
86329;SDS011;76985;51.042;13.978;2024-03-08T15:43:52;15.85;;;8.88;;
86329;SDS011;76985;51.042;13.978;2024-03-08T15:46:20;17.67;;;8.90;;